sensor_id;sensor_type;location;lat;lon;timestamp;temperature;humidity
29775;DHT22;16676;51.202;6.774;2024-02-23T00:00:30;18.80;77.20
29775;DHT22;16676;51.202;6.774;2024-02-23T00:04:32;18.70;77.10
29775;DHT22;16676;51.202;6.774;2024-02-23T00:08:34;18.70;76.90
29775;DHT22;16676;51.202;6.774;2024-02-23T00:12:36;18.70;77.30
29775;DHT22;16676;51.202;6.774;2024-02-23T00:16:40;18.80;77.00
29775;DHT22;16676;51.202;6.774;2024-02-23T00:20:42;18.80;77.00
29775;DHT22;16676;51.202;6.774;2024-02-23T00:24:44;18.80;77.10
29775;DHT22;16676;51.202;6.774;2024-02-23T00:28:46;18.70;77.10
29775;DHT22;16676;51.202;6.774;2024-02-23T00:32:49;18.60;76.90
29775;DHT22;16676;51.202;6.774;2024-02-23T00:36:51;18.60;77.40
29775;DHT22;16676;51.202;6.774;2024-02-23T00:40:53;18.60;77.00
29775;DHT22;16676;51.202;6.774;2024-02-23T00:44:55;18.70;77.20
29775;DHT22;16676;51.202;6.774;2024-02-23T00:48:58;18.60;77.00
29775;DHT22;16676;51.202;6.774;2024-02-23T00:53:00;18.60;77.10
29775;DHT22;16676;51.202;6.774;2024-02-23T00:57:02;18.60;77.00
29775;DHT22;16676;51.202;6.774;2024-02-23T01:01:04;18.70;77.10
29775;DHT22;16676;51.202;6.774;2024-02-23T01:05:08;18.60;77.30
29775;DHT22;16676;51.202;6.774;2024-02-23T01:09:11;18.60;77.30
29775;DHT22;16676;51.202;6.774;2024-02-23T01:13:13;18.60;77.40
29775;DHT22;16676;51.202;6.774;2024-02-23T01:17:15;18.50;77.30
29775;DHT22;16676;51.202;6.774;2024-02-23T01:21:18;18.60;77.20
29775;DHT22;16676;51.202;6.774;2024-02-23T01:25:20;18.50;77.60
29775;DHT22;16676;51.202;6.774;2024-02-23T01:29:22;18.50;77.30
29775;DHT22;16676;51.202;6.774;2024-02-23T01:33:24;18.50;77.50
29775;DHT22;16676;51.202;6.774;2024-02-23T01:37:27;18.50;77.40
29775;DHT22;16676;51.202;6.774;2024-02-23T01:41:29;18.50;77.10
29775;DHT22;16676;51.202;6.774;2024-02-23T01:45:33;18.50;77.10
29775;DHT22;16676;51.202;6.774;2024-02-23T01:49:35;18.50;77.10
29775;DHT22;16676;51.202;6.774;2024-02-23T01:53:38;18.50;77.30
29775;DHT22;16676;51.202;6.774;2024-02-23T01:57:40;18.50;77.20
29775;DHT22;16676;51.202;6.774;2024-02-23T02:01:43;18.40;77.20
29775;DHT22;16676;51.202;6.774;2024-02-23T02:05:45;18.40;77.10
29775;DHT22;16676;51.202;6.774;2024-02-23T02:09:48;18.40;77.10
29775;DHT22;16676;51.202;6.774;2024-02-23T02:13:51;18.40;77.20
29775;DHT22;16676;51.202;6.774;2024-02-23T02:17:52;18.40;77.30
29775;DHT22;16676;51.202;6.774;2024-02-23T02:21:55;18.30;77.10
29775;DHT22;16676;51.202;6.774;2024-02-23T02:25:59;18.30;77.20
29775;DHT22;16676;51.202;6.774;2024-02-23T02:30:00;18.30;76.80
29775;DHT22;16676;51.202;6.774;2024-02-23T02:34:03;18.30;77.10
29775;DHT22;16676;51.202;6.774;2024-02-23T02:38:05;18.30;76.90
29775;DHT22;16676;51.202;6.774;2024-02-23T02:42:09;18.30;77.10
29775;DHT22;16676;51.202;6.774;2024-02-23T02:46:11;18.30;77.00
29775;DHT22;16676;51.202;6.774;2024-02-23T02:50:13;18.20;77.00
29775;DHT22;16676;51.202;6.774;2024-02-23T02:54:14;18.30;77.10
29775;DHT22;16676;51.202;6.774;2024-02-23T02:58:18;18.30;77.30
29775;DHT22;16676;51.202;6.774;2024-02-23T03:02:20;18.30;77.00
29775;DHT22;16676;51.202;6.774;2024-02-23T03:06:22;18.30;76.50
29775;DHT22;16676;51.202;6.774;2024-02-23T03:10:23;18.20;76.60
29775;DHT22;16676;51.202;6.774;2024-02-23T03:14:27;18.20;76.50
29775;DHT22;16676;51.202;6.774;2024-02-23T03:18:29;18.20;76.90
29775;DHT22;16676;51.202;6.774;2024-02-23T03:22:31;18.20;76.60
29775;DHT22;16676;51.202;6.774;2024-02-23T03:26:33;18.20;76.90
29775;DHT22;16676;51.202;6.774;2024-02-23T03:30:36;18.20;76.90
29775;DHT22;16676;51.202;6.774;2024-02-23T03:34:38;18.20;76.90
29775;DHT22;16676;51.202;6.774;2024-02-23T03:38:40;18.20;76.60
29775;DHT22;16676;51.202;6.774;2024-02-23T03:42:41;18.20;76.50
29775;DHT22;16676;51.202;6.774;2024-02-23T03:46:45;18.10;76.50
29775;DHT22;16676;51.202;6.774;2024-02-23T03:50:46;18.20;76.40
29775;DHT22;16676;51.202;6.774;2024-02-23T03:54:48;18.10;76.50
29775;DHT22;16676;51.202;6.774;2024-02-23T03:58:52;18.10;77.10
29775;DHT22;16676;51.202;6.774;2024-02-23T04:02:55;18.10;76.70
29775;DHT22;16676;51.202;6.774;2024-02-23T04:06:57;18.10;76.70
29775;DHT22;16676;51.202;6.774;2024-02-23T04:10:59;18.10;76.50
29775;DHT22;16676;51.202;6.774;2024-02-23T04:15:01;18.10;76.50
29775;DHT22;16676;51.202;6.774;2024-02-23T04:19:04;18.10;76.50
29775;DHT22;16676;51.202;6.774;2024-02-23T04:23:06;18.10;76.30
29775;DHT22;16676;51.202;6.774;2024-02-23T04:27:08;18.10;76.50
29775;DHT22;16676;51.202;6.774;2024-02-23T04:31:10;18.10;76.50
29775;DHT22;16676;51.202;6.774;2024-02-23T04:35:14;18.00;76.40
29775;DHT22;16676;51.202;6.774;2024-02-23T04:39:16;18.10;76.80
29775;DHT22;16676;51.202;6.774;2024-02-23T04:43:18;18.10;76.40
29775;DHT22;16676;51.202;6.774;2024-02-23T04:47:19;18.20;76.00
29775;DHT22;16676;51.202;6.774;2024-02-23T04:51:23;18.40;76.00
29775;DHT22;16676;51.202;6.774;2024-02-23T04:55:25;18.60;76.00
29775;DHT22;16676;51.202;6.774;2024-02-23T04:59:26;18.80;75.50
29775;DHT22;16676;51.202;6.774;2024-02-23T05:03:28;18.90;75.30
29775;DHT22;16676;51.202;6.774;2024-02-23T05:07:32;19.00;74.80
29775;DHT22;16676;51.202;6.774;2024-02-23T05:11:34;19.20;74.50
29775;DHT22;16676;51.202;6.774;2024-02-23T05:15:35;19.30;74.10
29775;DHT22;16676;51.202;6.774;2024-02-23T05:19:37;19.30;73.90
29775;DHT22;16676;51.202;6.774;2024-02-23T05:23:41;19.40;73.80
29775;DHT22;16676;51.202;6.774;2024-02-23T05:27:43;19.40;73.60
29775;DHT22;16676;51.202;6.774;2024-02-23T05:31:46;19.40;73.30
29775;DHT22;16676;51.202;6.774;2024-02-23T05:35:48;19.40;73.00
29775;DHT22;16676;51.202;6.774;2024-02-23T05:39:52;19.40;73.10
29775;DHT22;16676;51.202;6.774;2024-02-23T05:43:54;19.50;73.20
29775;DHT22;16676;51.202;6.774;2024-02-23T05:47:56;19.40;73.10
29775;DHT22;16676;51.202;6.774;2024-02-23T05:51:58;19.40;73.10
29775;DHT22;16676;51.202;6.774;2024-02-23T05:56:01;19.40;73.40
29775;DHT22;16676;51.202;6.774;2024-02-23T06:00:04;19.40;73.10
29775;DHT22;16676;51.202;6.774;2024-02-23T06:04:06;19.40;72.90
29775;DHT22;16676;51.202;6.774;2024-02-23T06:08:07;19.40;72.80
29775;DHT22;16676;51.202;6.774;2024-02-23T06:12:11;19.40;72.80
29775;DHT22;16676;51.202;6.774;2024-02-23T06:16:12;19.40;72.80
29775;DHT22;16676;51.202;6.774;2024-02-23T06:20:15;19.40;72.80
29775;DHT22;16676;51.202;6.774;2024-02-23T06:24:17;19.40;72.80
29775;DHT22;16676;51.202;6.774;2024-02-23T06:28:20;19.40;72.70
29775;DHT22;16676;51.202;6.774;2024-02-23T06:32:22;19.40;72.80
29775;DHT22;16676;51.202;6.774;2024-02-23T06:36:24;19.40;72.90
29775;DHT22;16676;51.202;6.774;2024-02-23T06:40:26;19.30;72.90
29775;DHT22;16676;51.202;6.774;2024-02-23T06:44:29;19.30;72.80
29775;DHT22;16676;51.202;6.774;2024-02-23T06:48:31;19.30;73.00
29775;DHT22;16676;51.202;6.774;2024-02-23T06:52:33;18.30;53.40
29775;DHT22;16676;51.202;6.774;2024-02-23T06:56:35;17.30;56.80
29775;DHT22;16676;51.202;6.774;2024-02-23T07:00:38;17.60;57.60
29775;DHT22;16676;51.202;6.774;2024-02-23T07:04:40;18.40;57.50
29775;DHT22;16676;51.202;6.774;2024-02-23T07:08:42;19.20;57.70
29775;DHT22;16676;51.202;6.774;2024-02-23T07:12:43;19.70;57.80
29775;DHT22;16676;51.202;6.774;2024-02-23T07:16:47;20.10;57.90
29775;DHT22;16676;51.202;6.774;2024-02-23T07:20:49;20.30;58.20
29775;DHT22;16676;51.202;6.774;2024-02-23T07:24:51;20.80;57.40
29775;DHT22;16676;51.202;6.774;2024-02-23T07:28:53;21.00;57.40
29775;DHT22;16676;51.202;6.774;2024-02-23T07:32:57;21.00;58.20
29775;DHT22;16676;51.202;6.774;2024-02-23T07:36:59;21.00;58.60
29775;DHT22;16676;51.202;6.774;2024-02-23T07:41:01;21.10;58.60
29775;DHT22;16676;51.202;6.774;2024-02-23T07:45:03;21.20;58.70
29775;DHT22;16676;51.202;6.774;2024-02-23T07:49:07;21.40;58.30
29775;DHT22;16676;51.202;6.774;2024-02-23T07:53:10;21.50;58.50
29775;DHT22;16676;51.202;6.774;2024-02-23T07:57:12;21.70;58.50
29775;DHT22;16676;51.202;6.774;2024-02-23T08:01:17;21.70;58.50
29775;DHT22;16676;51.202;6.774;2024-02-23T08:05:21;21.80;58.50
29775;DHT22;16676;51.202;6.774;2024-02-23T08:09:22;21.80;58.60
29775;DHT22;16676;51.202;6.774;2024-02-23T08:13:24;21.80;58.70
29775;DHT22;16676;51.202;6.774;2024-02-23T08:17:26;21.80;59.00
29775;DHT22;16676;51.202;6.774;2024-02-23T08:21:30;21.80;59.00
29775;DHT22;16676;51.202;6.774;2024-02-23T08:25:31;21.80;59.20
29775;DHT22;16676;51.202;6.774;2024-02-23T08:29:33;21.80;59.40
29775;DHT22;16676;51.202;6.774;2024-02-23T08:33:39;21.80;59.50
29775;DHT22;16676;51.202;6.774;2024-02-23T08:37:42;21.70;59.80
29775;DHT22;16676;51.202;6.774;2024-02-23T08:41:44;21.70;59.80
29775;DHT22;16676;51.202;6.774;2024-02-23T08:45:46;21.60;59.80
29775;DHT22;16676;51.202;6.774;2024-02-23T08:49:47;21.60;60.00
29775;DHT22;16676;51.202;6.774;2024-02-23T08:53:51;21.50;60.20
29775;DHT22;16676;51.202;6.774;2024-02-23T08:57:53;21.50;60.50
29775;DHT22;16676;51.202;6.774;2024-02-23T09:01:55;21.40;60.70
29775;DHT22;16676;51.202;6.774;2024-02-23T09:05:57;21.40;61.60
29775;DHT22;16676;51.202;6.774;2024-02-23T09:10:00;21.40;61.30
29775;DHT22;16676;51.202;6.774;2024-02-23T09:14:02;21.40;61.60
29775;DHT22;16676;51.202;6.774;2024-02-23T09:18:05;21.40;61.60
29775;DHT22;16676;51.202;6.774;2024-02-23T09:22:07;21.30;61.90
29775;DHT22;16676;51.202;6.774;2024-02-23T09:26:10;21.20;62.20
29775;DHT22;16676;51.202;6.774;2024-02-23T09:30:13;21.10;62.50
29775;DHT22;16676;51.202;6.774;2024-02-23T09:34:15;21.10;62.30
29775;DHT22;16676;51.202;6.774;2024-02-23T09:38:18;21.10;62.50
29775;DHT22;16676;51.202;6.774;2024-02-23T09:42:23;21.00;62.50
29775;DHT22;16676;51.202;6.774;2024-02-23T09:46:26;21.00;62.50
29775;DHT22;16676;51.202;6.774;2024-02-23T09:50:28;21.00;62.40
29775;DHT22;16676;51.202;6.774;2024-02-23T09:54:31;20.90;62.70
29775;DHT22;16676;51.202;6.774;2024-02-23T09:58:34;20.90;62.70
29775;DHT22;16676;51.202;6.774;2024-02-23T10:02:37;20.90;62.90
29775;DHT22;16676;51.202;6.774;2024-02-23T10:06:41;20.80;63.10
29775;DHT22;16676;51.202;6.774;2024-02-23T10:10:46;20.80;63.00
29775;DHT22;16676;51.202;6.774;2024-02-23T10:14:49;20.80;63.40
29775;DHT22;16676;51.202;6.774;2024-02-23T10:18:52;20.70;63.70
29775;DHT22;16676;51.202;6.774;2024-02-23T10:22:54;20.80;63.70
29775;DHT22;16676;51.202;6.774;2024-02-23T10:26:56;20.70;64.00
29775;DHT22;16676;51.202;6.774;2024-02-23T10:31:00;20.70;64.00
29775;DHT22;16676;51.202;6.774;2024-02-23T10:35:03;20.70;64.10
29775;DHT22;16676;51.202;6.774;2024-02-23T10:39:09;20.70;64.10
29775;DHT22;16676;51.202;6.774;2024-02-23T10:43:12;20.70;64.40
29775;DHT22;16676;51.202;6.774;2024-02-23T10:47:20;20.70;64.20
29775;DHT22;16676;51.202;6.774;2024-02-23T10:51:23;20.60;64.30
29775;DHT22;16676;51.202;6.774;2024-02-23T10:55:27;20.60;64.90
29775;DHT22;16676;51.202;6.774;2024-02-23T10:59:30;20.60;65.40
29775;DHT22;16676;51.202;6.774;2024-02-23T11:03:35;20.60;65.00
29775;DHT22;16676;51.202;6.774;2024-02-23T11:07:38;20.50;65.30
29775;DHT22;16676;51.202;6.774;2024-02-23T11:11:51;20.50;65.10
29775;DHT22;16676;51.202;6.774;2024-02-23T11:16:01;20.50;65.60
29775;DHT22;16676;51.202;6.774;2024-02-23T11:20:06;20.50;65.60
29775;DHT22;16676;51.202;6.774;2024-02-23T11:24:15;20.40;65.60
29775;DHT22;16676;51.202;6.774;2024-02-23T11:28:22;20.40;66.10
29775;DHT22;16676;51.202;6.774;2024-02-23T11:32:36;20.50;66.10
29775;DHT22;16676;51.202;6.774;2024-02-23T11:36:40;20.40;65.60
29775;DHT22;16676;51.202;6.774;2024-02-23T11:40:42;20.50;65.70
29775;DHT22;16676;51.202;6.774;2024-02-23T11:44:44;20.50;65.60
29775;DHT22;16676;51.202;6.774;2024-02-23T11:48:46;20.50;65.20
29775;DHT22;16676;51.202;6.774;2024-02-23T11:52:55;20.50;65.30
29775;DHT22;16676;51.202;6.774;2024-02-23T11:56:57;20.40;65.30
29775;DHT22;16676;51.202;6.774;2024-02-23T12:01:00;20.50;65.30
29775;DHT22;16676;51.202;6.774;2024-02-23T12:05:04;20.50;65.20
29775;DHT22;16676;51.202;6.774;2024-02-23T12:09:07;20.50;65.40
29775;DHT22;16676;51.202;6.774;2024-02-23T12:13:10;20.50;65.40
29775;DHT22;16676;51.202;6.774;2024-02-23T12:17:12;20.50;66.20
29775;DHT22;16676;51.202;6.774;2024-02-23T12:21:14;20.50;65.60
29775;DHT22;16676;51.202;6.774;2024-02-23T12:25:17;20.50;65.40
29775;DHT22;16676;51.202;6.774;2024-02-23T12:29:19;20.50;65.40
29775;DHT22;16676;51.202;6.774;2024-02-23T12:33:21;20.50;65.70
29775;DHT22;16676;51.202;6.774;2024-02-23T12:37:23;20.50;65.60
29775;DHT22;16676;51.202;6.774;2024-02-23T12:41:27;20.50;65.40
29775;DHT22;16676;51.202;6.774;2024-02-23T12:45:28;20.50;64.20
29775;DHT22;16676;51.202;6.774;2024-02-23T12:49:30;20.40;63.20
29775;DHT22;16676;51.202;6.774;2024-02-23T12:53:34;20.30;63.20
29775;DHT22;16676;51.202;6.774;2024-02-23T12:57:38;20.20;62.50
29775;DHT22;16676;51.202;6.774;2024-02-23T13:01:40;20.20;62.80
29775;DHT22;16676;51.202;6.774;2024-02-23T13:05:42;20.10;63.20
29775;DHT22;16676;51.202;6.774;2024-02-23T13:09:44;20.10;63.10
29775;DHT22;16676;51.202;6.774;2024-02-23T13:13:47;20.00;63.10
29775;DHT22;16676;51.202;6.774;2024-02-23T13:17:49;20.10;63.30
29775;DHT22;16676;51.202;6.774;2024-02-23T13:21:51;20.00;63.10
29775;DHT22;16676;51.202;6.774;2024-02-23T13:25:53;19.90;62.80
29775;DHT22;16676;51.202;6.774;2024-02-23T13:29:56;19.90;63.00
29775;DHT22;16676;51.202;6.774;2024-02-23T13:33:58;19.90;62.90
29775;DHT22;16676;51.202;6.774;2024-02-23T13:38:00;19.80;62.80
29775;DHT22;16676;51.202;6.774;2024-02-23T13:42:04;19.70;62.60
29775;DHT22;16676;51.202;6.774;2024-02-23T13:46:10;19.70;63.00
29775;DHT22;16676;51.202;6.774;2024-02-23T13:50:12;19.70;63.10
29775;DHT22;16676;51.202;6.774;2024-02-23T13:54:14;19.70;63.10
29775;DHT22;16676;51.202;6.774;2024-02-23T13:58:16;19.70;63.40
29775;DHT22;16676;51.202;6.774;2024-02-23T14:02:25;19.70;63.30
29775;DHT22;16676;51.202;6.774;2024-02-23T14:06:29;19.70;63.70
29775;DHT22;16676;51.202;6.774;2024-02-23T14:10:31;19.60;63.70
29775;DHT22;16676;51.202;6.774;2024-02-23T14:14:33;19.60;63.60
29775;DHT22;16676;51.202;6.774;2024-02-23T14:18:36;19.60;63.40
29775;DHT22;16676;51.202;6.774;2024-02-23T14:22:40;19.60;63.50
29775;DHT22;16676;51.202;6.774;2024-02-23T14:26:42;19.60;63.40
29775;DHT22;16676;51.202;6.774;2024-02-23T14:30:44;19.50;63.70
29775;DHT22;16676;51.202;6.774;2024-02-23T14:34:47;19.50;63.20
29775;DHT22;16676;51.202;6.774;2024-02-23T14:38:50;19.60;63.90
29775;DHT22;16676;51.202;6.774;2024-02-23T14:42:52;19.70;61.20
29775;DHT22;16676;51.202;6.774;2024-02-23T14:46:54;19.90;60.70
29775;DHT22;16676;51.202;6.774;2024-02-23T14:50:57;20.00;60.20
29775;DHT22;16676;51.202;6.774;2024-02-23T14:54:59;20.20;59.80
29775;DHT22;16676;51.202;6.774;2024-02-23T14:59:01;20.20;60.10
29775;DHT22;16676;51.202;6.774;2024-02-23T15:03:03;20.30;59.30
29775;DHT22;16676;51.202;6.774;2024-02-23T15:07:07;20.40;59.30
29775;DHT22;16676;51.202;6.774;2024-02-23T15:11:09;20.40;59.10
29775;DHT22;16676;51.202;6.774;2024-02-23T15:15:11;20.40;59.30
29775;DHT22;16676;51.202;6.774;2024-02-23T15:19:13;20.40;59.20
29775;DHT22;16676;51.202;6.774;2024-02-23T15:23:16;20.40;59.40
29775;DHT22;16676;51.202;6.774;2024-02-23T15:27:18;20.40;59.60
29775;DHT22;16676;51.202;6.774;2024-02-23T15:31:20;20.40;59.50
29775;DHT22;16676;51.202;6.774;2024-02-23T15:35:23;20.40;59.30
29775;DHT22;16676;51.202;6.774;2024-02-23T15:39:28;20.40;59.50
29775;DHT22;16676;51.202;6.774;2024-02-23T15:43:30;20.40;60.30
29775;DHT22;16676;51.202;6.774;2024-02-23T15:47:32;20.40;59.40
29775;DHT22;16676;51.202;6.774;2024-02-23T15:51:34;20.40;59.80
29775;DHT22;16676;51.202;6.774;2024-02-23T15:55:39;20.40;59.80
29775;DHT22;16676;51.202;6.774;2024-02-23T15:59:41;20.30;59.80
29775;DHT22;16676;51.202;6.774;2024-02-23T16:03:43;20.30;59.80
29775;DHT22;16676;51.202;6.774;2024-02-23T16:07:45;20.30;60.40
29775;DHT22;16676;51.202;6.774;2024-02-23T16:11:50;20.30;60.50
29775;DHT22;16676;51.202;6.774;2024-02-23T16:15:52;20.20;60.10
29775;DHT22;16676;51.202;6.774;2024-02-23T16:19:54;20.20;61.20
29775;DHT22;16676;51.202;6.774;2024-02-23T16:23:55;20.20;61.20
29775;DHT22;16676;51.202;6.774;2024-02-23T16:27:59;20.20;61.60
29775;DHT22;16676;51.202;6.774;2024-02-23T16:32:01;20.10;61.20
29775;DHT22;16676;51.202;6.774;2024-02-23T16:36:04;20.20;61.50
29775;DHT22;16676;51.202;6.774;2024-02-23T16:40:07;20.10;61.70
29775;DHT22;16676;51.202;6.774;2024-02-23T16:44:11;20.00;61.70
29775;DHT22;16676;51.202;6.774;2024-02-23T16:48:15;20.00;61.60
29775;DHT22;16676;51.202;6.774;2024-02-23T16:52:17;20.00;62.30
29775;DHT22;16676;51.202;6.774;2024-02-23T16:56:19;19.90;62.00
29775;DHT22;16676;51.202;6.774;2024-02-23T17:00:22;19.80;62.60
29775;DHT22;16676;51.202;6.774;2024-02-23T17:04:25;19.80;62.60
29775;DHT22;16676;51.202;6.774;2024-02-23T17:08:27;19.80;62.40
29775;DHT22;16676;51.202;6.774;2024-02-23T17:12:29;19.70;62.20
29775;DHT22;16676;51.202;6.774;2024-02-23T17:16:32;19.70;62.30
29775;DHT22;16676;51.202;6.774;2024-02-23T17:20:35;19.60;63.00
29775;DHT22;16676;51.202;6.774;2024-02-23T17:24:36;19.60;63.70
29775;DHT22;16676;51.202;6.774;2024-02-23T17:28:38;19.60;65.50
29775;DHT22;16676;51.202;6.774;2024-02-23T17:32:43;19.70;67.60
29775;DHT22;16676;51.202;6.774;2024-02-23T17:36:45;19.70;69.80
29775;DHT22;16676;51.202;6.774;2024-02-23T17:40:47;19.80;67.40
29775;DHT22;16676;51.202;6.774;2024-02-23T17:44:51;19.80;66.40
29775;DHT22;16676;51.202;6.774;2024-02-23T17:48:55;19.80;66.30
29775;DHT22;16676;51.202;6.774;2024-02-23T17:52:57;19.80;67.30
29775;DHT22;16676;51.202;6.774;2024-02-23T17:57:00;19.90;70.50
29775;DHT22;16676;51.202;6.774;2024-02-23T18:01:02;20.00;72.40
29775;DHT22;16676;51.202;6.774;2024-02-23T18:05:05;20.00;74.60
29775;DHT22;16676;51.202;6.774;2024-02-23T18:09:08;20.00;76.70
29775;DHT22;16676;51.202;6.774;2024-02-23T18:13:10;20.00;78.10
29775;DHT22;16676;51.202;6.774;2024-02-23T18:17:13;20.00;79.60
29775;DHT22;16676;51.202;6.774;2024-02-23T18:21:16;20.00;81.00
29775;DHT22;16676;51.202;6.774;2024-02-23T18:25:18;20.10;74.70
29775;DHT22;16676;51.202;6.774;2024-02-23T18:29:20;20.10;71.00
29775;DHT22;16676;51.202;6.774;2024-02-23T18:33:22;20.10;69.70
29775;DHT22;16676;51.202;6.774;2024-02-23T18:37:26;20.00;68.70
29775;DHT22;16676;51.202;6.774;2024-02-23T18:41:27;20.00;68.40
29775;DHT22;16676;51.202;6.774;2024-02-23T18:45:29;19.90;68.50
29775;DHT22;16676;51.202;6.774;2024-02-23T18:49:32;19.90;68.30
29775;DHT22;16676;51.202;6.774;2024-02-23T18:53:36;19.80;67.90
29775;DHT22;16676;51.202;6.774;2024-02-23T18:57:38;19.70;67.80
29775;DHT22;16676;51.202;6.774;2024-02-23T19:01:40;19.70;68.10
29775;DHT22;16676;51.202;6.774;2024-02-23T19:05:44;19.70;67.60
29775;DHT22;16676;51.202;6.774;2024-02-23T19:09:47;19.60;68.70
29775;DHT22;16676;51.202;6.774;2024-02-23T19:13:49;19.60;68.40
29775;DHT22;16676;51.202;6.774;2024-02-23T19:17:51;19.60;68.60
29775;DHT22;16676;51.202;6.774;2024-02-23T19:21:53;19.60;69.00
29775;DHT22;16676;51.202;6.774;2024-02-23T19:25:56;19.50;68.90
29775;DHT22;16676;51.202;6.774;2024-02-23T19:29:58;19.50;68.80
29775;DHT22;16676;51.202;6.774;2024-02-23T19:34:05;19.50;69.60
29775;DHT22;16676;51.202;6.774;2024-02-23T19:38:08;19.50;69.60
29775;DHT22;16676;51.202;6.774;2024-02-23T19:42:11;19.50;69.60
29775;DHT22;16676;51.202;6.774;2024-02-23T19:46:14;19.40;69.30
29775;DHT22;16676;51.202;6.774;2024-02-23T19:50:19;19.40;69.20
29775;DHT22;16676;51.202;6.774;2024-02-23T19:54:21;19.40;69.40
29775;DHT22;16676;51.202;6.774;2024-02-23T19:58:24;19.30;69.30
29775;DHT22;16676;51.202;6.774;2024-02-23T20:02:26;19.30;69.30
29775;DHT22;16676;51.202;6.774;2024-02-23T20:06:28;19.30;69.20
29775;DHT22;16676;51.202;6.774;2024-02-23T20:10:30;19.20;69.10
29775;DHT22;16676;51.202;6.774;2024-02-23T20:14:34;19.20;69.30
29775;DHT22;16676;51.202;6.774;2024-02-23T20:18:36;19.20;69.40
29775;DHT22;16676;51.202;6.774;2024-02-23T20:22:38;19.20;69.30
29775;DHT22;16676;51.202;6.774;2024-02-23T20:26:40;19.20;69.50
29775;DHT22;16676;51.202;6.774;2024-02-23T20:30:43;19.20;69.40
29775;DHT22;16676;51.202;6.774;2024-02-23T20:34:45;19.10;68.90
29775;DHT22;16676;51.202;6.774;2024-02-23T20:38:47;19.10;69.60
29775;DHT22;16676;51.202;6.774;2024-02-23T20:42:50;19.10;69.60
29775;DHT22;16676;51.202;6.774;2024-02-23T20:46:53;19.10;69.50
29775;DHT22;16676;51.202;6.774;2024-02-23T20:50:55;19.10;69.60
29775;DHT22;16676;51.202;6.774;2024-02-23T20:54:59;19.00;69.40
29775;DHT22;16676;51.202;6.774;2024-02-23T20:59:01;19.00;69.30
29775;DHT22;16676;51.202;6.774;2024-02-23T21:03:05;19.00;69.40
29775;DHT22;16676;51.202;6.774;2024-02-23T21:07:07;19.00;69.40
29775;DHT22;16676;51.202;6.774;2024-02-23T21:11:09;19.00;69.00
29775;DHT22;16676;51.202;6.774;2024-02-23T21:15:11;18.90;69.30
29775;DHT22;16676;51.202;6.774;2024-02-23T21:19:14;18.90;69.00
29775;DHT22;16676;51.202;6.774;2024-02-23T21:23:16;18.90;68.70
29775;DHT22;16676;51.202;6.774;2024-02-23T21:27:18;18.80;68.00
29775;DHT22;16676;51.202;6.774;2024-02-23T21:31:20;18.80;68.60
29775;DHT22;16676;51.202;6.774;2024-02-23T21:35:23;18.80;68.90
29775;DHT22;16676;51.202;6.774;2024-02-23T21:39:25;18.90;68.50
29775;DHT22;16676;51.202;6.774;2024-02-23T21:43:27;18.80;68.60
29775;DHT22;16676;51.202;6.774;2024-02-23T21:47:29;18.80;68.90
29775;DHT22;16676;51.202;6.774;2024-02-23T21:51:33;18.80;69.00
29775;DHT22;16676;51.202;6.774;2024-02-23T21:55:35;18.80;69.20
29775;DHT22;16676;51.202;6.774;2024-02-23T21:59:36;18.80;69.00
29775;DHT22;16676;51.202;6.774;2024-02-23T22:03:38;18.80;69.20
29775;DHT22;16676;51.202;6.774;2024-02-23T22:07:42;18.80;68.90
29775;DHT22;16676;51.202;6.774;2024-02-23T22:11:44;18.70;69.30
29775;DHT22;16676;51.202;6.774;2024-02-23T22:15:45;18.70;69.60
29775;DHT22;16676;51.202;6.774;2024-02-23T22:19:47;18.70;69.30
29775;DHT22;16676;51.202;6.774;2024-02-23T22:23:51;18.70;69.40
29775;DHT22;16676;51.202;6.774;2024-02-23T22:27:52;18.70;69.30
29775;DHT22;16676;51.202;6.774;2024-02-23T22:31:54;18.60;69.30
29775;DHT22;16676;51.202;6.774;2024-02-23T22:35:56;18.60;68.80
29775;DHT22;16676;51.202;6.774;2024-02-23T22:39:59;18.60;69.40
29775;DHT22;16676;51.202;6.774;2024-02-23T22:44:02;18.60;69.40
29775;DHT22;16676;51.202;6.774;2024-02-23T22:48:05;18.60;69.10
29775;DHT22;16676;51.202;6.774;2024-02-23T22:52:09;18.60;69.30
29775;DHT22;16676;51.202;6.774;2024-02-23T22:56:12;18.60;68.80
29775;DHT22;16676;51.202;6.774;2024-02-23T23:00:15;18.50;69.40
29775;DHT22;16676;51.202;6.774;2024-02-23T23:04:17;18.60;69.00
29775;DHT22;16676;51.202;6.774;2024-02-23T23:08:19;18.50;68.90
29775;DHT22;16676;51.202;6.774;2024-02-23T23:12:22;18.50;69.30
29775;DHT22;16676;51.202;6.774;2024-02-23T23:16:24;18.50;69.20
29775;DHT22;16676;51.202;6.774;2024-02-23T23:20:26;18.50;69.30
29775;DHT22;16676;51.202;6.774;2024-02-23T23:24:28;18.50;68.90
29775;DHT22;16676;51.202;6.774;2024-02-23T23:28:31;18.50;69.40
29775;DHT22;16676;51.202;6.774;2024-02-23T23:32:33;18.40;69.30
29775;DHT22;16676;51.202;6.774;2024-02-23T23:36:36;18.40;69.20
29775;DHT22;16676;51.202;6.774;2024-02-23T23:40:38;18.40;69.50
29775;DHT22;16676;51.202;6.774;2024-02-23T23:44:41;18.40;69.00
29775;DHT22;16676;51.202;6.774;2024-02-23T23:48:43;18.40;69.40
29775;DHT22;16676;51.202;6.774;2024-02-23T23:52:45;18.40;69.40
29775;DHT22;16676;51.202;6.774;2024-02-23T23:56:46;18.40;68.90
